sensor_id;sensor_type;location;lat;lon;timestamp;pressure;altitude;pressure_sealevel;temperature;humidity
72210;BME280;60113;48.762;12.302;2022-12-07T00:01:11;97163.72;;;0.39;99.64
72210;BME280;60113;48.762;12.302;2022-12-07T00:03:37;97156.84;;;0.37;99.59
72210;BME280;60113;48.762;12.302;2022-12-07T00:06:05;97153.44;;;0.37;100.00
72210;BME280;60113;48.762;12.302;2022-12-07T00:08:31;97152.56;;;0.36;99.95
72210;BME280;60113;48.762;12.302;2022-12-07T00:11:04;97142.22;;;0.36;99.85
72210;BME280;60113;48.762;12.302;2022-12-07T00:13:31;97148.31;;;0.35;99.77
72210;BME280;60113;48.762;12.302;2022-12-07T00:16:04;97144.88;;;0.35;99.71
72210;BME280;60113;48.762;12.302;2022-12-07T00:18:30;97142.34;;;0.33;99.87
72210;BME280;60113;48.762;12.302;2022-12-07T00:21:20;97138.03;;;0.34;99.81
72210;BME280;60113;48.762;12.302;2022-12-07T00:23:47;97138.03;;;0.34;99.36
72210;BME280;60113;48.762;12.302;2022-12-07T00:26:46;97132.84;;;0.34;99.47
72210;BME280;60113;48.762;12.302;2022-12-07T00:29:08;97137.16;;;0.33;99.53
72210;BME280;60113;48.762;12.302;2022-12-07T00:31:36;97135.44;;;0.34;99.62
72210;BME280;60113;48.762;12.302;2022-12-07T00:34:05;97137.16;;;0.33;99.73
72210;BME280;60113;48.762;12.302;2022-12-07T00:36:30;97138.91;;;0.33;99.64
72210;BME280;60113;48.762;12.302;2022-12-07T00:38:58;97133.72;;;0.33;99.65
72210;BME280;60113;48.762;12.302;2022-12-07T00:41:26;97134.63;;;0.32;99.67
72210;BME280;60113;48.762;12.302;2022-12-07T00:43:52;97138.09;;;0.32;99.80
72210;BME280;60113;48.762;12.302;2022-12-07T00:46:18;97136.31;;;0.33;100.00
72210;BME280;60113;48.762;12.302;2022-12-07T00:48:45;97135.50;;;0.32;99.68
72210;BME280;60113;48.762;12.302;2022-12-07T00:51:12;97144.97;;;0.32;99.76
72210;BME280;60113;48.762;12.302;2022-12-07T00:53:38;97140.66;;;0.32;99.80
72210;BME280;60113;48.762;12.302;2022-12-07T00:56:08;97143.19;;;0.34;99.68
72210;BME280;60113;48.762;12.302;2022-12-07T00:58:34;97133.72;;;0.33;99.45
72210;BME280;60113;48.762;12.302;2022-12-07T01:01:02;97141.50;;;0.33;99.52
72210;BME280;60113;48.762;12.302;2022-12-07T01:03:28;97151.81;;;0.33;99.46
72210;BME280;60113;48.762;12.302;2022-12-07T01:05:55;97151.81;;;0.33;99.53
72210;BME280;60113;48.762;12.302;2022-12-07T01:08:22;97148.41;;;0.32;99.45
72210;BME280;60113;48.762;12.302;2022-12-07T01:10:48;97149.25;;;0.33;99.62
72210;BME280;60113;48.762;12.302;2022-12-07T01:13:15;97140.66;;;0.32;99.28
72210;BME280;60113;48.762;12.302;2022-12-07T01:15:43;97144.97;;;0.32;99.45
72210;BME280;60113;48.762;12.302;2022-12-07T01:18:08;97138.13;;;0.31;99.64
72210;BME280;60113;48.762;12.302;2022-12-07T01:20:34;97141.66;;;0.28;99.62
72210;BME280;60113;48.762;12.302;2022-12-07T01:23:00;97146.06;;;0.26;99.44
72210;BME280;60113;48.762;12.302;2022-12-07T01:25:25;97139.22;;;0.23;99.42
72210;BME280;60113;48.762;12.302;2022-12-07T01:27:51;97148.75;;;0.23;99.51
72210;BME280;60113;48.762;12.302;2022-12-07T01:30:16;97157.44;;;0.20;99.43
72210;BME280;60113;48.762;12.302;2022-12-07T01:32:42;97154.09;;;0.18;99.60
72210;BME280;60113;48.762;12.302;2022-12-07T01:35:08;97156.72;;;0.17;99.44
72210;BME280;60113;48.762;12.302;2022-12-07T01:37:35;97155.06;;;0.14;99.31
72210;BME280;60113;48.762;12.302;2022-12-07T01:40:02;97148.22;;;0.13;99.78
72210;BME280;60113;48.762;12.302;2022-12-07T01:42:28;97146.53;;;0.12;99.62
72210;BME280;60113;48.762;12.302;2022-12-07T01:47:51;97144.91;;;0.09;99.45
72210;BME280;60113;48.762;12.302;2022-12-07T01:50:18;97141.53;;;0.07;99.55
72210;BME280;60113;48.762;12.302;2022-12-07T01:52:46;97137.25;;;0.06;99.23
72210;BME280;60113;48.762;12.302;2022-12-07T01:55:15;97135.56;;;0.05;99.34
72210;BME280;60113;48.762;12.302;2022-12-07T01:57:44;97138.22;;;0.04;99.38
72210;BME280;60113;48.762;12.302;2022-12-07T02:00:11;97142.56;;;0.02;99.30
72210;BME280;60113;48.762;12.302;2022-12-07T02:03:22;97146.94;;;0.01;99.21
72210;BME280;60113;48.762;12.302;2022-12-07T02:05:28;97142.72;;;-0.02;99.07
72210;BME280;60113;48.762;12.302;2022-12-07T02:07:55;97139.28;;;-0.02;99.35
72210;BME280;60113;48.762;12.302;2022-12-07T02:10:28;97143.59;;;-0.03;99.44
72210;BME280;60113;48.762;12.302;2022-12-07T02:13:13;97140.19;;;-0.03;99.39
72210;BME280;60113;48.762;12.302;2022-12-07T02:18:31;97138.47;;;-0.04;99.64
72210;BME280;60113;48.762;12.302;2022-12-07T02:21:20;97143.69;;;-0.06;99.21
72210;BME280;60113;48.762;12.302;2022-12-07T02:29:25;97136.00;;;-0.07;99.04
72210;BME280;60113;48.762;12.302;2022-12-07T02:34:46;97139.38;;;-0.05;99.12
72210;BME280;60113;48.762;12.302;2022-12-07T02:40:06;97132.44;;;-0.03;98.82
72210;BME280;60113;48.762;12.302;2022-12-07T02:42:49;97124.69;;;-0.03;98.91
72210;BME280;60113;48.762;12.302;2022-12-07T02:45:18;97129.06;;;-0.05;98.84
72210;BME280;60113;48.762;12.302;2022-12-07T02:47:48;97128.16;;;-0.04;98.70
72210;BME280;60113;48.762;12.302;2022-12-07T02:50:18;97122.16;;;-0.05;98.85
72210;BME280;60113;48.762;12.302;2022-12-07T02:52:45;97125.56;;;-0.04;98.81
72210;BME280;60113;48.762;12.302;2022-12-07T02:55:11;97131.59;;;-0.04;98.89
72210;BME280;60113;48.762;12.302;2022-12-07T03:00:21;97127.38;;;-0.06;99.06
72210;BME280;60113;48.762;12.302;2022-12-07T03:02:59;97121.34;;;-0.07;99.13
72210;BME280;60113;48.762;12.302;2022-12-07T03:08:24;97117.03;;;-0.06;98.81
72210;BME280;60113;48.762;12.302;2022-12-07T03:10:58;97121.34;;;-0.07;98.94
72210;BME280;60113;48.762;12.302;2022-12-07T03:13:40;97120.44;;;-0.06;98.77
72210;BME280;60113;48.762;12.302;2022-12-07T03:18:37;97117.03;;;-0.06;98.84
72210;BME280;60113;48.762;12.302;2022-12-07T03:21:11;97116.19;;;-0.07;98.67
72210;BME280;60113;48.762;12.302;2022-12-07T03:23:40;97115.34;;;-0.07;98.80
72210;BME280;60113;48.762;12.302;2022-12-07T03:26:10;97108.44;;;-0.07;98.47
72210;BME280;60113;48.762;12.302;2022-12-07T03:28:42;97108.44;;;-0.07;98.62
72210;BME280;60113;48.762;12.302;2022-12-07T03:31:22;97109.34;;;-0.08;98.67
72210;BME280;60113;48.762;12.302;2022-12-07T03:33:58;97099.91;;;-0.09;98.51
72210;BME280;60113;48.762;12.302;2022-12-07T03:36:38;97105.06;;;-0.09;98.54
72210;BME280;60113;48.762;12.302;2022-12-07T03:39:33;97109.41;;;-0.09;98.64
72210;BME280;60113;48.762;12.302;2022-12-07T03:42:00;97106.94;;;-0.13;98.46
72210;BME280;60113;48.762;12.302;2022-12-07T03:44:28;97105.16;;;-0.12;98.68
72210;BME280;60113;48.762;12.302;2022-12-07T03:49:55;97109.56;;;-0.14;98.93
72210;BME280;60113;48.762;12.302;2022-12-07T03:52:34;97110.44;;;-0.15;98.88
72210;BME280;60113;48.762;12.302;2022-12-07T03:55:15;97107.03;;;-0.16;98.81
72210;BME280;60113;48.762;12.302;2022-12-07T03:57:44;97110.44;;;-0.15;98.96
72210;BME280;60113;48.762;12.302;2022-12-07T04:00:12;97116.47;;;-0.15;98.96
72210;BME280;60113;48.762;12.302;2022-12-07T04:02:38;97119.94;;;-0.16;99.23
72210;BME280;60113;48.762;12.302;2022-12-07T04:05:04;97117.38;;;-0.16;99.32
72210;BME280;60113;48.762;12.302;2022-12-07T04:07:31;97107.03;;;-0.16;99.53
72210;BME280;60113;48.762;12.302;2022-12-07T04:09:57;97098.47;;;-0.18;99.45
72210;BME280;60113;48.762;12.302;2022-12-07T04:12:28;97105.38;;;-0.18;99.36
72210;BME280;60113;48.762;12.302;2022-12-07T04:14:56;97106.22;;;-0.18;99.46
72210;BME280;60113;48.762;12.302;2022-12-07T04:17:22;97103.72;;;-0.19;99.76
72210;BME280;60113;48.762;12.302;2022-12-07T04:19:47;97096.88;;;-0.20;99.46
72210;BME280;60113;48.762;12.302;2022-12-07T04:22:13;97096.97;;;-0.23;99.58
72210;BME280;60113;48.762;12.302;2022-12-07T04:24:39;97092.63;;;-0.23;99.61
72210;BME280;60113;48.762;12.302;2022-12-07T04:27:04;97093.47;;;-0.22;99.65
72210;BME280;60113;48.762;12.302;2022-12-07T04:29:30;97096.06;;;-0.22;99.40
72210;BME280;60113;48.762;12.302;2022-12-07T04:31:55;97100.31;;;-0.21;99.23
72210;BME280;60113;48.762;12.302;2022-12-07T04:34:21;97096.88;;;-0.20;99.42
72210;BME280;60113;48.762;12.302;2022-12-07T04:36:46;97092.56;;;-0.21;99.26
72210;BME280;60113;48.762;12.302;2022-12-07T04:39:28;97096.91;;;-0.22;99.56
72210;BME280;60113;48.762;12.302;2022-12-07T04:41:54;97093.47;;;-0.22;99.26
72210;BME280;60113;48.762;12.302;2022-12-07T04:44:21;97088.38;;;-0.24;99.30
72210;BME280;60113;48.762;12.302;2022-12-07T04:46:47;97089.22;;;-0.23;99.33
72210;BME280;60113;48.762;12.302;2022-12-07T04:49:13;97090.03;;;-0.23;99.71
72210;BME280;60113;48.762;12.302;2022-12-07T04:51:39;97093.53;;;-0.24;99.77
72210;BME280;60113;48.762;12.302;2022-12-07T04:54:05;97097.84;;;-0.24;99.65
72210;BME280;60113;48.762;12.302;2022-12-07T04:56:31;97093.63;;;-0.27;100.00
72210;BME280;60113;48.762;12.302;2022-12-07T04:58:57;97095.38;;;-0.28;99.80
72210;BME280;60113;48.762;12.302;2022-12-07T05:01:24;97098.81;;;-0.27;99.81
72210;BME280;60113;48.762;12.302;2022-12-07T05:03:50;97090.19;;;-0.28;99.67
72210;BME280;60113;48.762;12.302;2022-12-07T05:06:16;97091.91;;;-0.27;99.71
72210;BME280;60113;48.762;12.302;2022-12-07T05:08:42;97110.03;;;-0.28;99.68
72210;BME280;60113;48.762;12.302;2022-12-07T05:11:10;97100.63;;;-0.31;99.65
72210;BME280;60113;48.762;12.302;2022-12-07T05:13:56;97095.53;;;-0.32;100.00
72210;BME280;60113;48.762;12.302;2022-12-07T05:16:21;97096.47;;;-0.35;100.00
72210;BME280;60113;48.762;12.302;2022-12-07T05:18:47;97091.38;;;-0.36;99.79
72210;BME280;60113;48.762;12.302;2022-12-07T05:21:13;97091.47;;;-0.40;99.81
72210;BME280;60113;48.762;12.302;2022-12-07T05:23:39;97079.63;;;-0.45;99.86
72210;BME280;60113;48.762;12.302;2022-12-07T05:26:04;97084.25;;;-0.55;99.20
72210;BME280;60113;48.762;12.302;2022-12-07T05:28:30;97085.31;;;-0.61;99.41
72210;BME280;60113;48.762;12.302;2022-12-07T05:30:55;97090.72;;;-0.69;99.28
72210;BME280;60113;48.762;12.302;2022-12-07T05:33:21;97102.22;;;-0.78;99.37
72210;BME280;60113;48.762;12.302;2022-12-07T05:35:46;97097.34;;;-0.87;99.06
72210;BME280;60113;48.762;12.302;2022-12-07T05:38:15;97101.94;;;-0.97;99.15
72210;BME280;60113;48.762;12.302;2022-12-07T05:40:48;97102.25;;;-1.06;99.48
72210;BME280;60113;48.762;12.302;2022-12-07T05:43:16;97100.81;;;-1.15;99.10
72210;BME280;60113;48.762;12.302;2022-12-07T05:45:50;97110.31;;;-1.17;99.49
72210;BME280;60113;48.762;12.302;2022-12-07T05:48:20;97106.09;;;-1.20;99.61
72210;BME280;60113;48.762;12.302;2022-12-07T05:51:14;97104.28;;;-1.18;99.31
72210;BME280;60113;48.762;12.302;2022-12-07T05:53:47;97099.91;;;-1.14;99.55
72210;BME280;60113;48.762;12.302;2022-12-07T05:56:24;97095.50;;;-1.10;99.62
72210;BME280;60113;48.762;12.302;2022-12-07T05:59:03;97103.91;;;-1.05;99.18
72210;BME280;60113;48.762;12.302;2022-12-07T06:01:56;97100.41;;;-1.03;99.09
72210;BME280;60113;48.762;12.302;2022-12-07T06:04:38;97096.03;;;-1.01;98.64
72210;BME280;60113;48.762;12.302;2022-12-07T06:07:16;97092.69;;;-1.03;98.82
72210;BME280;60113;48.762;12.302;2022-12-07T06:09:49;97086.75;;;-1.06;98.25
72210;BME280;60113;48.762;12.302;2022-12-07T06:12:27;97086.91;;;-1.11;97.99
72210;BME280;60113;48.762;12.302;2022-12-07T06:15:33;97082.00;;;-1.19;97.95
72210;BME280;60113;48.762;12.302;2022-12-07T06:18:28;97076.16;;;-1.26;97.89
72210;BME280;60113;48.762;12.302;2022-12-07T06:21:00;97079.84;;;-1.33;97.52
72210;BME280;60113;48.762;12.302;2022-12-07T06:23:44;97074.91;;;-1.41;97.42
72210;BME280;60113;48.762;12.302;2022-12-07T06:26:20;97072.56;;;-1.48;96.98
72210;BME280;60113;48.762;12.302;2022-12-07T06:28:55;97072.72;;;-1.53;97.08
72210;BME280;60113;48.762;12.302;2022-12-07T06:31:36;97074.59;;;-1.58;97.18
72210;BME280;60113;48.762;12.302;2022-12-07T06:34:24;97075.66;;;-1.66;97.38
72210;BME280;60113;48.762;12.302;2022-12-07T06:37:12;97075.91;;;-1.75;97.29
72210;BME280;60113;48.762;12.302;2022-12-07T06:40:05;97089.84;;;-1.81;96.91
72210;BME280;60113;48.762;12.302;2022-12-07T06:42:42;97089.16;;;-1.88;97.46
72210;BME280;60113;48.762;12.302;2022-12-07T06:45:21;97096.22;;;-1.94;96.83
72210;BME280;60113;48.762;12.302;2022-12-07T06:47:58;97101.59;;;-2.02;96.89
72210;BME280;60113;48.762;12.302;2022-12-07T06:50:35;97112.84;;;-2.05;97.20
72210;BME280;60113;48.762;12.302;2022-12-07T06:53:09;97112.03;;;-2.07;97.17
72210;BME280;60113;48.762;12.302;2022-12-07T06:55:49;97120.66;;;-2.08;97.82
72210;BME280;60113;48.762;12.302;2022-12-07T06:58:23;97116.34;;;-2.09;97.89
72210;BME280;60113;48.762;12.302;2022-12-07T07:00:49;97111.28;;;-2.12;98.16
72210;BME280;60113;48.762;12.302;2022-12-07T07:03:16;97118.97;;;-2.10;98.00
72210;BME280;60113;48.762;12.302;2022-12-07T07:05:42;97119.81;;;-2.10;98.28
72210;BME280;60113;48.762;12.302;2022-12-07T07:08:08;97123.34;;;-2.12;98.19
72210;BME280;60113;48.762;12.302;2022-12-07T07:10:34;97128.56;;;-2.16;98.04
72210;BME280;60113;48.762;12.302;2022-12-07T07:13:00;97131.16;;;-2.16;98.60
72210;BME280;60113;48.762;12.302;2022-12-07T07:15:26;97122.59;;;-2.18;99.13
72210;BME280;60113;48.762;12.302;2022-12-07T07:17:51;97126.13;;;-2.20;99.06
72210;BME280;60113;48.762;12.302;2022-12-07T07:20:17;97125.31;;;-2.22;98.80
72210;BME280;60113;48.762;12.302;2022-12-07T07:22:42;97132.13;;;-2.21;99.54
72210;BME280;60113;48.762;12.302;2022-12-07T07:25:08;97144.97;;;-2.20;99.62
72210;BME280;60113;48.762;12.302;2022-12-07T07:27:34;97144.06;;;-2.17;99.52
72210;BME280;60113;48.762;12.302;2022-12-07T07:29:59;97141.41;;;-2.14;99.47
72210;BME280;60113;48.762;12.302;2022-12-07T07:32:25;97148.19;;;-2.11;99.74
72210;BME280;60113;48.762;12.302;2022-12-07T07:34:50;97150.72;;;-2.10;98.87
72210;BME280;60113;48.762;12.302;2022-12-07T07:37:15;97150.66;;;-2.07;99.26
72210;BME280;60113;48.762;12.302;2022-12-07T07:39:41;97153.09;;;-2.02;99.65
72210;BME280;60113;48.762;12.302;2022-12-07T07:42:06;97147.75;;;-1.94;99.75
72210;BME280;60113;48.762;12.302;2022-12-07T07:44:33;97140.63;;;-1.86;99.81
72210;BME280;60113;48.762;12.302;2022-12-07T07:46:59;97153.22;;;-1.75;99.32
72210;BME280;60113;48.762;12.302;2022-12-07T07:49:25;97148.63;;;-1.64;99.51
72210;BME280;60113;48.762;12.302;2022-12-07T07:51:51;97145.78;;;-1.54;99.49
72210;BME280;60113;48.762;12.302;2022-12-07T07:54:16;97148.94;;;-1.44;100.00
72210;BME280;60113;48.762;12.302;2022-12-07T07:56:42;97140.09;;;-1.35;100.00
72210;BME280;60113;48.762;12.302;2022-12-07T07:59:07;97142.47;;;-1.29;99.53
72210;BME280;60113;48.762;12.302;2022-12-07T08:01:33;97142.34;;;-1.24;99.73
72210;BME280;60113;48.762;12.302;2022-12-07T08:03:59;97141.34;;;-1.20;99.52
72210;BME280;60113;48.762;12.302;2022-12-07T08:06:24;97138.72;;;-1.19;99.70
72210;BME280;60113;48.762;12.302;2022-12-07T08:08:50;97144.63;;;-1.15;99.22
72210;BME280;60113;48.762;12.302;2022-12-07T08:11:15;97143.66;;;-1.11;99.34
72210;BME280;60113;48.762;12.302;2022-12-07T08:13:41;97139.28;;;-1.09;99.04
72210;BME280;60113;48.762;12.302;2022-12-07T08:16:09;97136.66;;;-1.07;99.44
72210;BME280;60113;48.762;12.302;2022-12-07T08:18:36;97142.59;;;-1.05;99.43
72210;BME280;60113;48.762;12.302;2022-12-07T08:21:02;97140.88;;;-1.05;99.51
72210;BME280;60113;48.762;12.302;2022-12-07T08:23:28;97138.31;;;-1.05;99.32
72210;BME280;60113;48.762;12.302;2022-12-07T08:25:53;97139.97;;;-1.04;99.32
72210;BME280;60113;48.762;12.302;2022-12-07T08:28:19;97144.22;;;-1.01;99.45
72210;BME280;60113;48.762;12.302;2022-12-07T08:30:44;97137.31;;;-1.01;98.97
72210;BME280;60113;48.762;12.302;2022-12-07T08:33:11;97142.38;;;-0.97;98.77
72210;BME280;60113;48.762;12.302;2022-12-07T08:35:36;97153.41;;;-0.92;98.82
72210;BME280;60113;48.762;12.302;2022-12-07T08:38:02;97155.69;;;-0.83;98.83
72210;BME280;60113;48.762;12.302;2022-12-07T08:40:28;97162.19;;;-0.71;98.96
72210;BME280;60113;48.762;12.302;2022-12-07T08:42:55;97161.69;;;-0.55;98.94
72210;BME280;60113;48.762;12.302;2022-12-07T08:45:21;97172.31;;;-0.38;99.14
72210;BME280;60113;48.762;12.302;2022-12-07T08:48:01;97170.00;;;-0.20;98.86
72210;BME280;60113;48.762;12.302;2022-12-07T08:50:27;97163.38;;;-0.02;98.69
72210;BME280;60113;48.762;12.302;2022-12-07T08:52:55;97160.25;;;0.14;98.10
72210;BME280;60113;48.762;12.302;2022-12-07T08:55:23;97155.53;;;0.26;97.53
72210;BME280;60113;48.762;12.302;2022-12-07T08:57:48;97159.59;;;0.33;97.01
72210;BME280;60113;48.762;12.302;2022-12-07T09:00:15;97163.81;;;0.35;96.46
72210;BME280;60113;48.762;12.302;2022-12-07T09:02:43;97166.25;;;0.40;96.41
72210;BME280;60113;48.762;12.302;2022-12-07T09:05:09;97166.13;;;0.43;96.47
72210;BME280;60113;48.762;12.302;2022-12-07T09:07:35;97172.13;;;0.44;96.49
72210;BME280;60113;48.762;12.302;2022-12-07T09:10:03;97166.94;;;0.44;96.61
72210;BME280;60113;48.762;12.302;2022-12-07T09:12:28;97166.00;;;0.46;96.51
72210;BME280;60113;48.762;12.302;2022-12-07T09:14:54;97168.50;;;0.49;96.86
72210;BME280;60113;48.762;12.302;2022-12-07T09:17:19;97169.16;;;0.55;97.18
72210;BME280;60113;48.762;12.302;2022-12-07T09:19:45;97161.28;;;0.58;97.13
72210;BME280;60113;48.762;12.302;2022-12-07T09:22:10;97159.47;;;0.60;97.43
72210;BME280;60113;48.762;12.302;2022-12-07T09:24:36;97164.59;;;0.61;97.29
72210;BME280;60113;48.762;12.302;2022-12-07T09:27:01;97159.38;;;0.63;96.94
72210;BME280;60113;48.762;12.302;2022-12-07T09:29:26;97162.75;;;0.65;96.46
72210;BME280;60113;48.762;12.302;2022-12-07T09:31:52;97156.72;;;0.65;96.03
72210;BME280;60113;48.762;12.302;2022-12-07T09:34:18;97159.19;;;0.68;96.26
72210;BME280;60113;48.762;12.302;2022-12-07T09:36:44;97153.00;;;0.72;96.17
72210;BME280;60113;48.762;12.302;2022-12-07T09:39:10;97150.13;;;0.80;95.78
72210;BME280;60113;48.762;12.302;2022-12-07T09:41:43;97148.03;;;0.90;95.24
72210;BME280;60113;48.762;12.302;2022-12-07T09:44:17;97146.88;;;0.97;95.09
72210;BME280;60113;48.762;12.302;2022-12-07T09:46:45;97156.25;;;0.99;94.01
72210;BME280;60113;48.762;12.302;2022-12-07T09:49:20;97150.28;;;0.99;92.59
72210;BME280;60113;48.762;12.302;2022-12-07T09:51:46;97147.50;;;1.04;93.30
72210;BME280;60113;48.762;12.302;2022-12-07T09:54:13;97151.72;;;1.06;93.73
72210;BME280;60113;48.762;12.302;2022-12-07T09:56:40;97149.91;;;1.08;93.52
72210;BME280;60113;48.762;12.302;2022-12-07T09:59:05;97145.56;;;1.09;93.01
72210;BME280;60113;48.762;12.302;2022-12-07T10:01:33;97135.09;;;1.12;93.06
72210;BME280;60113;48.762;12.302;2022-12-07T10:04:10;97139.50;;;1.10;92.10
72210;BME280;60113;48.762;12.302;2022-12-07T10:06:38;97131.69;;;1.11;93.07
72210;BME280;60113;48.762;12.302;2022-12-07T10:09:11;97128.47;;;1.05;92.38
72210;BME280;60113;48.762;12.302;2022-12-07T10:12:06;97130.44;;;0.98;91.67
72210;BME280;60113;48.762;12.302;2022-12-07T10:14:34;97127.81;;;0.99;93.13
72210;BME280;60113;48.762;12.302;2022-12-07T10:17:00;97123.19;;;1.08;93.49
72210;BME280;60113;48.762;12.302;2022-12-07T10:19:31;97124.41;;;1.42;92.74
72210;BME280;60113;48.762;12.302;2022-12-07T10:22:16;97120.66;;;1.91;91.76
72210;BME280;60113;48.762;12.302;2022-12-07T10:24:43;97121.22;;;2.38;92.57
72210;BME280;60113;48.762;12.302;2022-12-07T10:27:20;97117.03;;;2.74;88.31
72210;BME280;60113;48.762;12.302;2022-12-07T10:29:51;97107.41;;;3.13;91.81
72210;BME280;60113;48.762;12.302;2022-12-07T10:34:43;97111.19;;;3.78;92.60
72210;BME280;60113;48.762;12.302;2022-12-07T10:40:10;97107.03;;;3.74;84.62
72210;BME280;60113;48.762;12.302;2022-12-07T10:43:03;97108.03;;;3.89;89.84
72210;BME280;60113;48.762;12.302;2022-12-07T10:45:29;97100.59;;;3.99;90.87
72210;BME280;60113;48.762;12.302;2022-12-07T10:53:49;97091.44;;;3.92;89.50
72210;BME280;60113;48.762;12.302;2022-12-07T10:56:45;97096.75;;;3.55;80.14
72210;BME280;60113;48.762;12.302;2022-12-07T11:02:20;97090.41;;;3.60;83.01
72210;BME280;60113;48.762;12.302;2022-12-07T11:21:31;97068.44;;;2.39;84.22
72210;BME280;60113;48.762;12.302;2022-12-07T11:24:16;97069.50;;;2.35;82.99
72210;BME280;60113;48.762;12.302;2022-12-07T11:27:06;97057.50;;;2.32;83.65
72210;BME280;60113;48.762;12.302;2022-12-07T11:37:55;97046.84;;;2.19;84.24
72210;BME280;60113;48.762;12.302;2022-12-07T11:40:36;97048.81;;;2.14;83.53
72210;BME280;60113;48.762;12.302;2022-12-07T11:45:44;97051.59;;;2.09;84.01
72210;BME280;60113;48.762;12.302;2022-12-07T11:48:20;97059.44;;;2.08;84.78
72210;BME280;60113;48.762;12.302;2022-12-07T11:50:51;97055.19;;;2.07;84.83
72210;BME280;60113;48.762;12.302;2022-12-07T11:53:46;97051.13;;;2.01;83.66
72210;BME280;60113;48.762;12.302;2022-12-07T11:56:25;97051.94;;;2.02;85.26
72210;BME280;60113;48.762;12.302;2022-12-07T12:06:35;97036.69;;;1.95;85.10
72210;BME280;60113;48.762;12.302;2022-12-07T12:09:15;97041.88;;;1.95;84.95
72210;BME280;60113;48.762;12.302;2022-12-07T12:22:33;97046.16;;;1.96;84.08
72210;BME280;60113;48.762;12.302;2022-12-07T12:25:04;97041.88;;;1.95;84.28
72210;BME280;60113;48.762;12.302;2022-12-07T12:27:32;97033.19;;;1.96;84.85
72210;BME280;60113;48.762;12.302;2022-12-07T12:30:01;97040.97;;;1.96;85.22
72210;BME280;60113;48.762;12.302;2022-12-07T12:32:39;97030.59;;;1.96;85.80
72210;BME280;60113;48.762;12.302;2022-12-07T12:37:53;97017.84;;;1.92;84.05
72210;BME280;60113;48.762;12.302;2022-12-07T12:42:54;97027.56;;;1.86;85.60
72210;BME280;60113;48.762;12.302;2022-12-07T12:45:23;97033.72;;;1.84;87.43
72210;BME280;60113;48.762;12.302;2022-12-07T12:47:56;97027.75;;;1.82;86.87
72210;BME280;60113;48.762;12.302;2022-12-07T12:50:38;97022.72;;;1.79;85.25
72210;BME280;60113;48.762;12.302;2022-12-07T12:53:24;97030.41;;;1.80;86.89
72210;BME280;60113;48.762;12.302;2022-12-07T12:58:37;97020.91;;;1.81;84.94
72210;BME280;60113;48.762;12.302;2022-12-07T13:04:02;97020.91;;;1.81;86.16
72210;BME280;60113;48.762;12.302;2022-12-07T13:06:35;97009.75;;;1.79;86.38
72210;BME280;60113;48.762;12.302;2022-12-07T13:09:03;97017.47;;;1.80;86.80
72210;BME280;60113;48.762;12.302;2022-12-07T13:14:38;97012.47;;;1.75;84.48
72210;BME280;60113;48.762;12.302;2022-12-07T13:17:12;97015.22;;;1.72;84.83
72210;BME280;60113;48.762;12.302;2022-12-07T13:19:55;97011.81;;;1.72;85.91
72210;BME280;60113;48.762;12.302;2022-12-07T13:27:37;97012.69;;;1.71;87.59
72210;BME280;60113;48.762;12.302;2022-12-07T13:30:16;97006.69;;;1.70;87.23
72210;BME280;60113;48.762;12.302;2022-12-07T13:32:42;97003.25;;;1.70;87.43
72210;BME280;60113;48.762;12.302;2022-12-07T13:35:31;97008.63;;;1.65;84.96
72210;BME280;60113;48.762;12.302;2022-12-07T13:37:57;97000.84;;;1.65;87.73
72210;BME280;60113;48.762;12.302;2022-12-07T13:40:23;97008.69;;;1.64;87.23
72210;BME280;60113;48.762;12.302;2022-12-07T13:43:04;97006.16;;;1.62;87.17
72210;BME280;60113;48.762;12.302;2022-12-07T13:45:32;97005.31;;;1.61;86.90
72210;BME280;60113;48.762;12.302;2022-12-07T13:48:50;97000.34;;;1.57;87.05
72210;BME280;60113;48.762;12.302;2022-12-07T13:53:53;97002.25;;;1.53;87.04
72210;BME280;60113;48.762;12.302;2022-12-07T13:56:21;97004.03;;;1.51;88.21
72210;BME280;60113;48.762;12.302;2022-12-07T13:58:47;96999.00;;;1.48;88.04
72210;BME280;60113;48.762;12.302;2022-12-07T14:01:13;96999.97;;;1.45;87.20
72210;BME280;60113;48.762;12.302;2022-12-07T14:03:40;97006.97;;;1.43;87.66
72210;BME280;60113;48.762;12.302;2022-12-07T14:06:19;96997.66;;;1.39;87.29
72210;BME280;60113;48.762;12.302;2022-12-07T14:08:46;97001.97;;;1.39;86.99
72210;BME280;60113;48.762;12.302;2022-12-07T14:11:19;96997.78;;;1.36;87.35
72210;BME280;60113;48.762;12.302;2022-12-07T14:18:45;96998.84;;;1.32;87.72
72210;BME280;60113;48.762;12.302;2022-12-07T14:21:17;96995.47;;;1.30;88.00
72210;BME280;60113;48.762;12.302;2022-12-07T14:23:44;96992.09;;;1.28;87.97
72210;BME280;60113;48.762;12.302;2022-12-07T14:26:18;97000.84;;;1.25;87.54
72210;BME280;60113;48.762;12.302;2022-12-07T14:28:45;96995.78;;;1.22;87.60
72210;BME280;60113;48.762;12.302;2022-12-07T14:33:40;96992.41;;;1.20;88.04
72210;BME280;60113;48.762;12.302;2022-12-07T14:36:08;96995.97;;;1.17;88.35
72210;BME280;60113;48.762;12.302;2022-12-07T14:38:34;96997.78;;;1.15;88.64
72210;BME280;60113;48.762;12.302;2022-12-07T14:40:59;96987.50;;;1.14;88.78
72210;BME280;60113;48.762;12.302;2022-12-07T14:43:46;96988.47;;;1.11;88.68
72210;BME280;60113;48.762;12.302;2022-12-07T14:46:11;96984.28;;;1.08;88.72
72210;BME280;60113;48.762;12.302;2022-12-07T14:48:37;96979.16;;;1.07;88.80
72210;BME280;60113;48.762;12.302;2022-12-07T14:51:03;96986.06;;;1.06;88.95
72210;BME280;60113;48.762;12.302;2022-12-07T14:53:33;96981.88;;;1.04;88.67
72210;BME280;60113;48.762;12.302;2022-12-07T14:56:00;96975.91;;;1.02;88.93
72210;BME280;60113;48.762;12.302;2022-12-07T14:58:26;96975.06;;;1.01;88.79
72210;BME280;60113;48.762;12.302;2022-12-07T15:00:51;96979.47;;;0.99;88.62
72210;BME280;60113;48.762;12.302;2022-12-07T15:03:18;96976.03;;;0.98;89.29
72210;BME280;60113;48.762;12.302;2022-12-07T15:05:44;96976.09;;;0.97;88.45
72210;BME280;60113;48.762;12.302;2022-12-07T15:08:13;96972.72;;;0.95;88.40
72210;BME280;60113;48.762;12.302;2022-12-07T15:10:39;96984.00;;;0.94;88.77